createdAt,value
2023-05-04T00:01:24.832Z,101862.97
2023-05-04T00:03:52.956Z,101874.28
2023-05-04T00:06:20.785Z,101870.56
2023-05-04T00:08:49.773Z,101871.50
2023-05-04T00:11:17.522Z,101876.59
2023-05-04T00:13:46.011Z,101870.31
2023-05-04T00:16:13.769Z,101862.28
2023-05-04T00:18:41.595Z,101866.59
2023-05-04T00:21:09.260Z,101867.38
2023-05-04T00:23:37.075Z,101858.50
2023-05-04T00:26:06.174Z,101854.94
2023-05-04T00:28:33.864Z,101855.63
2023-05-04T00:31:01.579Z,101847.72
2023-05-04T00:33:29.279Z,101852.84
2023-05-04T00:35:57.041Z,101851.91
2023-05-04T00:38:24.904Z,101856.13
2023-05-04T00:40:52.627Z,101851.66
2023-05-04T00:43:21.758Z,101849.78
2023-05-04T00:45:49.546Z,101848.78
2023-05-04T00:48:17.377Z,101851.31
2023-05-04T00:50:45.199Z,101847.63
2023-05-04T00:53:13.140Z,101851.81
2023-05-04T00:55:41.544Z,101859.63
2023-05-04T00:58:09.517Z,101860.38
2023-05-04T01:00:39.136Z,101862.06
2023-05-04T01:03:07.276Z,101856.69
2023-05-04T01:05:39.348Z,101854.84
2023-05-04T01:08:10.709Z,101848.59
2023-05-04T01:10:44.459Z,101854.66
2023-05-04T01:13:14.992Z,101851.06
2023-05-04T01:15:48.349Z,101847.44
2023-05-04T01:18:17.394Z,101846.50
2023-05-04T01:20:45.120Z,101841.06
2023-05-04T01:23:14.170Z,101842.72
2023-05-04T01:25:50.546Z,101841.69
2023-05-04T01:28:21.891Z,101862.63
2023-05-04T01:30:53.939Z,101856.34
2023-05-04T01:33:22.746Z,101853.59
2023-05-04T01:35:54.241Z,101848.16
2023-05-04T01:38:28.043Z,101850.63
2023-05-04T01:40:56.967Z,101853.06
2023-05-04T01:43:24.664Z,101852.13
2023-05-04T01:45:52.583Z,101860.78
2023-05-04T01:48:20.288Z,101854.50
2023-05-04T01:50:48.293Z,101848.34
2023-05-04T01:53:16.018Z,101841.22
2023-05-04T01:55:45.201Z,101847.38
2023-05-04T01:58:12.893Z,101848.97
2023-05-04T02:00:40.877Z,101847.09
2023-05-04T02:03:11.769Z,101844.38
2023-05-04T02:05:39.597Z,101844.31
2023-05-04T02:08:07.619Z,101852.13
2023-05-04T02:10:35.351Z,101851.16
2023-05-04T02:13:04.648Z,101853.66
2023-05-04T02:15:32.341Z,101851.72
2023-05-04T02:18:00.056Z,101843.75
2023-05-04T02:20:27.885Z,101849.88
2023-05-04T02:22:55.546Z,101849.81
2023-05-04T02:25:23.859Z,101841.84
2023-05-04T02:27:51.539Z,101833.00
2023-05-04T02:30:21.148Z,101839.16
2023-05-04T02:32:48.885Z,101832.94
2023-05-04T02:35:16.637Z,101839.88
2023-05-04T02:37:44.312Z,101842.34
2023-05-04T02:40:13.852Z,101838.69
2023-05-04T02:42:41.632Z,101842.13
2023-05-04T02:45:10.198Z,101839.44
2023-05-04T02:47:41.878Z,101837.66
2023-05-04T02:50:10.429Z,101830.53
2023-05-04T02:52:38.133Z,101835.72
2023-05-04T02:55:06.947Z,101840.91
2023-05-04T02:57:34.641Z,101830.22
2023-05-04T03:00:02.633Z,101830.16
2023-05-04T03:02:30.432Z,101834.38
2023-05-04T03:04:59.463Z,101835.13
2023-05-04T03:07:27.541Z,101828.09
2023-05-04T03:09:55.289Z,101828.84
2023-05-04T03:12:23.442Z,101829.69
2023-05-04T03:14:51.157Z,101823.50
2023-05-04T03:17:19.160Z,101827.81
2023-05-04T03:19:48.420Z,101833.00
2023-05-04T03:22:21.349Z,101825.03
2023-05-04T03:24:55.325Z,101827.66
2023-05-04T03:27:23.339Z,101823.19
2023-05-04T03:29:51.340Z,101824.97
2023-05-04T03:32:20.622Z,101826.72
2023-05-04T03:34:48.448Z,101822.25
2023-05-04T03:37:18.816Z,101831.88
2023-05-04T03:39:46.515Z,101828.28
2023-05-04T03:42:14.250Z,101833.56
2023-05-04T03:44:42.325Z,101831.81
2023-05-04T03:47:10.381Z,101817.78
2023-05-04T03:49:38.090Z,101828.28
2023-05-04T03:52:07.370Z,101827.47
2023-05-04T03:54:36.777Z,101818.69
2023-05-04T03:57:04.457Z,101819.47
2023-05-04T03:59:36.204Z,101819.38
2023-05-04T04:02:06.545Z,101825.47
2023-05-04T04:04:38.085Z,101828.00
2023-05-04T04:07:09.729Z,101819.25
2023-05-04T04:09:40.225Z,101828.88
2023-05-04T04:12:10.133Z,101829.69
2023-05-04T04:14:48.445Z,101826.16
2023-05-04T04:17:19.265Z,101823.47
2023-05-04T04:19:47.195Z,101826.09
2023-05-04T04:22:15.228Z,101823.53
2023-05-04T04:25:09.141Z,101823.59
2023-05-04T04:27:37.970Z,101823.59
2023-05-04T04:30:07.440Z,101825.47
2023-05-04T04:32:37.595Z,101819.38
2023-05-04T04:35:07.039Z,101823.03
2023-05-04T04:37:35.304Z,101824.06
2023-05-04T04:40:08.800Z,101821.53
2023-05-04T04:42:42.198Z,101830.50
2023-05-04T04:45:15.549Z,101817.44
2023-05-04T04:47:47.386Z,101818.53
2023-05-04T04:50:17.389Z,101818.75
2023-05-04T04:52:46.807Z,101817.22
2023-05-04T04:55:17.339Z,101814.78
2023-05-04T04:57:55.762Z,101816.78
2023-05-04T05:00:24.254Z,101810.03
2023-05-04T05:02:58.050Z,101813.81
2023-05-04T05:05:26.968Z,101811.53
2023-05-04T05:07:57.396Z,101809.22
2023-05-04T05:10:25.373Z,101810.44
2023-05-04T05:12:57.607Z,101808.19
2023-05-04T05:15:25.840Z,101803.28
2023-05-04T05:17:54.096Z,101801.03
2023-05-04T05:20:23.749Z,101792.63
2023-05-04T05:22:52.425Z,101788.59
2023-05-04T05:25:25.072Z,101793.38
2023-05-04T05:28:06.275Z,101788.56
2023-05-04T05:30:34.507Z,101791.59
2023-05-04T05:33:03.802Z,101785.88
2023-05-04T05:35:31.527Z,101781.91
2023-05-04T05:37:59.757Z,101789.28
2023-05-04T05:40:27.463Z,101795.81
2023-05-04T05:42:56.619Z,101791.78
2023-05-04T05:45:24.481Z,101783.28
2023-05-04T05:47:52.215Z,101794.19
2023-05-04T05:50:20.972Z,101786.56
2023-05-04T05:52:48.655Z,101786.06
2023-05-04T05:55:16.537Z,101787.22
2023-05-04T05:57:44.295Z,101784.88
2023-05-04T06:00:15.138Z,101779.94
2023-05-04T06:02:43.050Z,101780.25
2023-05-04T06:05:11.674Z,101779.69
2023-05-04T06:07:39.469Z,101779.97
2023-05-04T06:10:08.845Z,101784.69
2023-05-04T06:12:36.630Z,101778.84
2023-05-04T06:15:04.788Z,101786.19
2023-05-04T06:17:33.855Z,101794.44
2023-05-04T06:20:01.550Z,101789.41
2023-05-04T06:22:29.203Z,101785.31
2023-05-04T06:25:02.157Z,101784.63
2023-05-04T06:27:32.911Z,101792.78
2023-05-04T06:30:00.923Z,101785.94
2023-05-04T06:32:28.674Z,101802.94
2023-05-04T06:34:59.380Z,101797.00
2023-05-04T06:37:27.149Z,101792.03
2023-05-04T06:39:55.572Z,101796.72
2023-05-04T06:42:23.386Z,101804.88
2023-05-04T06:44:52.514Z,101796.25
2023-05-04T06:47:20.221Z,101802.72
2023-05-04T06:49:48.010Z,101801.19
2023-05-04T06:52:17.016Z,101797.97
2023-05-04T06:54:44.664Z,101796.47
2023-05-04T06:57:12.380Z,101803.00
2023-05-04T06:59:40.094Z,101795.38
2023-05-04T07:02:08.206Z,101801.84
2023-05-04T07:04:35.977Z,101804.78
2023-05-04T07:07:03.928Z,101806.84
2023-05-04T07:09:33.153Z,101805.31
2023-05-04T07:12:00.811Z,101801.22
2023-05-04T07:14:28.508Z,101791.69
2023-05-04T07:16:56.199Z,101814.03
2023-05-04T07:19:23.885Z,101806.28
2023-05-04T07:21:51.584Z,101805.63
2023-05-04T07:24:19.259Z,101808.47
2023-05-04T07:26:48.278Z,101810.47
2023-05-04T07:29:16.111Z,101808.94
2023-05-04T07:31:43.795Z,101801.19
2023-05-04T07:34:11.624Z,101802.31
2023-05-04T07:36:40.480Z,101792.78
2023-05-04T07:39:09.781Z,101796.59
2023-05-04T07:41:37.616Z,101793.28
2023-05-04T07:44:08.590Z,101789.09
2023-05-04T07:46:36.472Z,101781.31
2023-05-04T07:49:04.350Z,101782.41
2023-05-04T07:51:32.000Z,101777.22
2023-05-04T07:53:59.878Z,101773.75
2023-05-04T07:56:27.542Z,101774.81
2023-05-04T07:58:55.255Z,101765.16
2023-05-04T08:01:24.707Z,101764.34
2023-05-04T08:03:52.637Z,101760.91
2023-05-04T08:06:20.407Z,101765.47
2023-05-04T08:08:51.485Z,101759.38
2023-05-04T08:11:21.319Z,101756.00
2023-05-04T08:13:50.593Z,101744.59
2023-05-04T08:16:18.647Z,101751.81
2023-05-04T08:18:48.392Z,101747.47
2023-05-04T08:21:16.215Z,101749.31
2023-05-04T08:23:44.122Z,101735.19
2023-05-04T08:26:11.786Z,101750.38
2023-05-04T08:28:41.067Z,101742.38
2023-05-04T08:31:08.895Z,101746.00
2023-05-04T08:33:36.862Z,101739.81
2023-05-04T08:36:07.752Z,101740.78
2023-05-04T08:38:35.546Z,101742.59
2023-05-04T08:41:04.156Z,101740.81
2023-05-04T08:43:35.909Z,101743.47
2023-05-04T08:46:04.935Z,101747.94
2023-05-04T08:48:33.607Z,101743.47
2023-05-04T08:51:04.339Z,101739.88
2023-05-04T08:53:35.388Z,101739.84
2023-05-04T08:56:04.967Z,101732.69
2023-05-04T08:58:38.003Z,101723.72
2023-05-04T09:01:08.396Z,101731.69
2023-05-04T09:03:36.696Z,101733.44
2023-05-04T09:06:04.945Z,101728.00
2023-05-04T09:08:34.188Z,101724.38
2023-05-04T09:11:02.066Z,101718.91
2023-05-04T09:13:29.743Z,101721.47
2023-05-04T09:15:58.165Z,101713.31
2023-05-04T09:18:36.823Z,101714.16
2023-05-04T09:21:04.707Z,101706.78
2023-05-04T09:23:34.506Z,101703.00
2023-05-04T09:26:02.609Z,101700.94
2023-05-04T09:28:39.147Z,101710.47
2023-05-04T09:31:07.799Z,101703.09
2023-05-04T09:33:35.593Z,101700.16
2023-05-04T09:36:14.783Z,101698.13
2023-05-04T09:38:44.261Z,101700.53
2023-05-04T09:41:12.006Z,101701.97
2023-05-04T09:43:40.859Z,101696.44
2023-05-04T09:46:16.305Z,101697.16
2023-05-04T09:48:52.075Z,101687.97
2023-05-04T09:51:22.469Z,101686.75
2023-05-04T09:53:52.538Z,101685.44
2023-05-04T09:56:32.098Z,101692.13
2023-05-04T09:59:00.760Z,101685.47
2023-05-04T10:01:30.469Z,101681.53
2023-05-04T10:03:58.577Z,101675.75
2023-05-04T10:06:29.451Z,101675.22
2023-05-04T10:09:00.237Z,101666.72
2023-05-04T10:11:27.868Z,101663.91
2023-05-04T10:13:57.172Z,101662.66
2023-05-04T10:16:34.489Z,101656.09
2023-05-04T10:19:19.280Z,101652.94
2023-05-04T10:22:01.072Z,101643.47
2023-05-04T10:24:50.076Z,101644.81
2023-05-04T10:27:22.875Z,101641.31
2023-05-04T10:29:52.124Z,101633.81
2023-05-04T10:32:20.809Z,101629.06
2023-05-04T10:34:49.155Z,101622.63
2023-05-04T10:37:18.625Z,101627.78
2023-05-04T10:39:54.058Z,101624.28
2023-05-04T10:42:22.276Z,101620.50
2023-05-04T10:44:51.192Z,101608.81
2023-05-04T10:47:29.106Z,101609.16
2023-05-04T10:50:04.651Z,101608.78
2023-05-04T10:52:32.802Z,101608.66
2023-05-04T10:55:04.138Z,101597.00
2023-05-04T10:57:31.915Z,101591.34
2023-05-04T10:59:59.972Z,101588.47
2023-05-04T11:02:30.437Z,101597.28
2023-05-04T11:05:04.054Z,101576.59
2023-05-04T11:07:37.621Z,101576.56
2023-05-04T11:10:09.620Z,101574.41
2023-05-04T11:12:38.961Z,101574.38
2023-05-04T11:15:08.444Z,101576.41
2023-05-04T11:17:45.424Z,101573.38
2023-05-04T11:20:20.672Z,101571.84
2023-05-04T11:22:48.652Z,101564.44
2023-05-04T11:25:18.325Z,101565.09
2023-05-04T11:27:50.006Z,101560.88
2023-05-04T11:30:18.083Z,101569.13
2023-05-04T11:32:47.226Z,101567.72
2023-05-04T11:35:17.058Z,101570.78
2023-05-04T11:37:46.337Z,101566.00
2023-05-04T11:40:16.536Z,101553.75
2023-05-04T11:42:46.003Z,101560.19
2023-05-04T11:45:17.023Z,101552.31
2023-05-04T11:47:45.645Z,101549.00
2023-05-04T11:50:15.054Z,101542.34
2023-05-04T11:52:43.515Z,101541.59
2023-05-04T11:55:17.235Z,101526.72
2023-05-04T11:57:47.425Z,101540.69
2023-05-04T12:00:17.239Z,101532.81
2023-05-04T12:02:48.350Z,101532.91
2023-05-04T12:05:17.000Z,101527.94
2023-05-04T12:07:44.731Z,101527.56
2023-05-04T12:10:12.394Z,101533.03
2023-05-04T12:12:40.457Z,101529.47
2023-05-04T12:15:11.275Z,101524.28
2023-05-04T12:17:42.575Z,101532.22
2023-05-04T12:20:10.779Z,101523.16
2023-05-04T12:22:38.699Z,101522.19
2023-05-04T12:25:09.311Z,101527.13
2023-05-04T12:27:41.750Z,101517.53
2023-05-04T12:30:12.366Z,101510.94
2023-05-04T12:32:40.104Z,101514.25
2023-05-04T12:35:08.581Z,101510.69
2023-05-04T12:37:36.586Z,101515.28
2023-05-04T12:40:11.342Z,101515.56
2023-05-04T12:42:45.746Z,101503.69
2023-05-04T12:45:16.119Z,101510.19
2023-05-04T12:47:43.969Z,101497.00
2023-05-04T12:50:12.191Z,101499.34
2023-05-04T12:52:40.679Z,101497.75
2023-05-04T12:55:09.253Z,101501.13
2023-05-04T12:57:37.568Z,101495.03
2023-05-04T13:00:09.570Z,101491.97
2023-05-04T13:02:38.725Z,101486.22
2023-05-04T13:05:07.995Z,101490.63
2023-05-04T13:07:36.260Z,101488.53
2023-05-04T13:10:04.133Z,101489.03
2023-05-04T13:12:31.808Z,101471.50
2023-05-04T13:14:59.621Z,101473.28
2023-05-04T13:17:29.659Z,101469.34
2023-05-04T13:19:58.728Z,101457.16
2023-05-04T13:22:27.153Z,101459.25
2023-05-04T13:24:57.267Z,101458.69
2023-05-04T13:27:24.968Z,101470.19
2023-05-04T13:29:52.705Z,101453.59
2023-05-04T13:32:20.462Z,101452.94
2023-05-04T13:34:48.446Z,101447.66
2023-05-04T13:37:18.524Z,101446.59
2023-05-04T13:39:47.027Z,101448.94
2023-05-04T13:42:14.813Z,101445.38
2023-05-04T13:44:44.845Z,101440.50
2023-05-04T13:47:13.755Z,101445.78
2023-05-04T13:49:41.680Z,101445.41
2023-05-04T13:52:09.391Z,101436.03
2023-05-04T13:54:38.816Z,101432.97
2023-05-04T13:57:06.455Z,101434.41
2023-05-04T13:59:34.348Z,101434.31
2023-05-04T14:02:02.136Z,101429.78
2023-05-04T14:04:29.786Z,101420.91
2023-05-04T14:06:57.705Z,101421.16
2023-05-04T14:09:26.719Z,101415.72
2023-05-04T14:11:55.756Z,101416.72
2023-05-04T14:14:23.479Z,101416.88
2023-05-04T14:16:51.718Z,101403.31
2023-05-04T14:19:19.748Z,101401.31
2023-05-04T14:21:47.791Z,101393.53
2023-05-04T14:24:15.523Z,101390.66
2023-05-04T14:26:43.187Z,101378.88
2023-05-04T14:29:12.846Z,101383.66
2023-05-04T14:31:40.893Z,101381.44
2023-05-04T14:34:08.696Z,101378.97
2023-05-04T14:36:36.635Z,101366.25
2023-05-04T14:39:04.444Z,101369.81
2023-05-04T14:41:33.655Z,101356.91
2023-05-04T14:44:01.519Z,101356.47
2023-05-04T14:46:31.107Z,101360.44
2023-05-04T14:48:59.023Z,101347.00
2023-05-04T14:51:27.684Z,101348.69
2023-05-04T14:53:55.406Z,101340.31
2023-05-04T14:56:23.343Z,101338.78
2023-05-04T14:58:51.125Z,101335.13
2023-05-04T15:01:18.785Z,101335.78
2023-05-04T15:03:47.874Z,101329.41
2023-05-04T15:06:15.632Z,101326.50
2023-05-04T15:08:43.358Z,101330.13
2023-05-04T15:11:11.056Z,101320.53
2023-05-04T15:13:38.721Z,101320.91
2023-05-04T15:16:07.531Z,101315.97
2023-05-04T15:18:35.499Z,101321.97
2023-05-04T15:21:04.574Z,101313.53
2023-05-04T15:23:32.242Z,101316.69
2023-05-04T15:26:00.820Z,101308.94
2023-05-04T15:28:28.509Z,101303.78
2023-05-04T15:30:56.311Z,101304.75
2023-05-04T15:33:24.006Z,101306.66
2023-05-04T15:35:51.773Z,101302.22
2023-05-04T15:38:20.883Z,101300.94
2023-05-04T15:40:48.864Z,101291.38
2023-05-04T15:43:16.532Z,101295.56
2023-05-04T15:45:44.178Z,101284.25
2023-05-04T15:48:11.918Z,101281.84
2023-05-04T15:50:39.591Z,101285.78
2023-05-04T15:53:07.198Z,101280.63
2023-05-04T15:55:36.283Z,101286.47
2023-05-04T15:58:03.945Z,101282.75
2023-05-04T16:00:31.702Z,101282.66
2023-05-04T16:03:00.820Z,101275.28
2023-05-04T16:05:28.710Z,101279.19
2023-05-04T16:07:57.035Z,101262.34
2023-05-04T16:10:24.914Z,101258.16
2023-05-04T16:12:54.000Z,101257.81
2023-05-04T16:15:21.703Z,101254.72
2023-05-04T16:17:49.491Z,101255.97
2023-05-04T16:20:17.218Z,101246.47
2023-05-04T16:22:44.901Z,101237.81
2023-05-04T16:25:12.534Z,101230.06
2023-05-04T16:27:40.656Z,101237.56
2023-05-04T16:30:11.116Z,101233.28
2023-05-04T16:32:38.919Z,101237.13
2023-05-04T16:35:07.648Z,101240.09
2023-05-04T16:37:36.317Z,101235.78
2023-05-04T16:40:10.758Z,101235.94
2023-05-04T16:42:38.398Z,101240.63
2023-05-04T16:45:07.558Z,101231.84
2023-05-04T16:47:36.782Z,101223.03
2023-05-04T16:50:05.031Z,101224.13
2023-05-04T16:52:32.841Z,101222.44
2023-05-04T16:55:01.093Z,101226.16
2023-05-04T16:57:28.858Z,101227.19
2023-05-04T16:59:56.937Z,101221.00
2023-05-04T17:02:24.754Z,101221.09
2023-05-04T17:04:54.286Z,101222.09
2023-05-04T17:07:21.935Z,101212.38
2023-05-04T17:09:49.578Z,101208.03
2023-05-04T17:12:17.207Z,101221.66
2023-05-04T17:14:45.984Z,101212.88
2023-05-04T17:17:13.621Z,101210.41
2023-05-04T17:19:41.327Z,101212.41
2023-05-04T17:22:11.196Z,101211.75
2023-05-04T17:24:38.901Z,101210.13
2023-05-04T17:27:06.523Z,101219.22
2023-05-04T17:29:34.151Z,101213.13
2023-05-04T17:32:02.203Z,101203.50
2023-05-04T17:34:29.862Z,101209.03
2023-05-04T17:36:57.541Z,101209.25
2023-05-04T17:39:26.536Z,101214.81
2023-05-04T17:41:54.148Z,101209.66
2023-05-04T17:44:24.703Z,101215.25
2023-05-04T17:46:52.328Z,101215.41
2023-05-04T17:49:20.927Z,101210.25
2023-05-04T17:51:49.157Z,101210.44
2023-05-04T17:54:17.100Z,101199.94
2023-05-04T17:56:46.106Z,101206.44
2023-05-04T17:59:13.756Z,101208.34
2023-05-04T18:01:41.582Z,101214.84
2023-05-04T18:04:09.224Z,101216.78
2023-05-04T18:06:37.367Z,101220.59
2023-05-04T18:09:05.296Z,101219.00
2023-05-04T18:11:33.054Z,101230.84
2023-05-04T18:14:02.059Z,101226.53
2023-05-04T18:16:29.723Z,101230.31
2023-05-04T18:18:58.427Z,101233.25
2023-05-04T18:21:26.278Z,101234.31
2023-05-04T18:23:54.069Z,101233.63
2023-05-04T18:26:22.655Z,101236.53
2023-05-04T18:28:50.850Z,101236.75
2023-05-04T18:31:20.303Z,101236.91
2023-05-04T18:33:48.063Z,101238.94
2023-05-04T18:36:15.733Z,101241.75
2023-05-04T18:38:43.366Z,101240.16
2023-05-04T18:41:11.887Z,101251.03
2023-05-04T18:43:39.574Z,101242.28
2023-05-04T18:46:08.005Z,101247.81
2023-05-04T18:48:37.099Z,101247.09
2023-05-04T18:51:05.419Z,101250.88
2023-05-04T18:53:33.035Z,101259.03
2023-05-04T18:56:02.166Z,101259.19
2023-05-04T18:58:29.860Z,101253.13
2023-05-04T19:00:57.493Z,101254.16
2023-05-04T19:03:25.530Z,101256.06
2023-05-04T19:05:55.074Z,101258.91
2023-05-04T19:08:23.181Z,101251.91
2023-05-04T19:10:51.081Z,101255.63
2023-05-04T19:13:20.721Z,101256.63
2023-05-04T19:15:48.354Z,101254.03
2023-05-04T19:18:17.098Z,101261.31
2023-05-04T19:20:45.071Z,101258.69
2023-05-04T19:23:14.047Z,101254.34
2023-05-04T19:25:41.755Z,101254.47
2023-05-04T19:28:09.869Z,101246.53
2023-05-04T19:30:37.887Z,101251.94
2023-05-04T19:33:06.546Z,101252.91
2023-05-04T19:35:34.272Z,101249.44
2023-05-04T19:38:02.422Z,101246.84
2023-05-04T19:40:31.632Z,101244.25
2023-05-04T19:42:59.370Z,101248.78
2023-05-04T19:45:27.224Z,101248.81
2023-05-04T19:47:54.889Z,101245.28
2023-05-04T19:50:22.573Z,101241.81
2023-05-04T19:52:50.412Z,101250.72
2023-05-04T19:55:18.157Z,101253.44
2023-05-04T19:57:47.813Z,101253.44
2023-05-04T20:00:17.147Z,101247.28
2023-05-04T20:02:45.263Z,101240.19
2023-05-04T20:05:13.132Z,101246.44
2023-05-04T20:07:40.867Z,101230.44
2023-05-04T20:10:09.283Z,101238.50
2023-05-04T20:12:37.163Z,101237.63
2023-05-04T20:15:07.373Z,101240.31
2023-05-04T20:17:35.098Z,101234.97
2023-05-04T20:20:03.767Z,101234.09
2023-05-04T20:22:32.340Z,101243.91
2023-05-04T20:25:00.140Z,101232.38
2023-05-04T20:27:27.810Z,101243.94
2023-05-04T20:29:55.498Z,101243.94
2023-05-04T20:32:24.491Z,101245.72
2023-05-04T20:34:52.112Z,101242.19
2023-05-04T20:37:19.735Z,101245.75
2023-05-04T20:39:47.414Z,101246.66
2023-05-04T20:42:15.567Z,101235.13
2023-05-04T20:44:43.395Z,101235.13
2023-05-04T20:47:11.402Z,101243.09
2023-05-04T20:49:40.437Z,101235.16
2023-05-04T20:52:08.195Z,101231.56
2023-05-04T20:54:35.905Z,101235.13
2023-05-04T20:57:03.576Z,101225.38
2023-05-04T20:59:31.452Z,101226.22
2023-05-04T21:01:59.204Z,101231.56
2023-05-04T21:04:26.814Z,101235.09
2023-05-04T21:06:55.798Z,101228.00
2023-05-04T21:09:23.422Z,101232.41
2023-05-04T21:11:51.053Z,101210.25
2023-05-04T21:14:18.664Z,101218.22
2023-05-04T21:16:46.317Z,101220.88
2023-05-04T21:19:13.948Z,101219.09
2023-05-04T21:21:41.661Z,101218.19
2023-05-04T21:24:13.336Z,101219.09
2023-05-04T21:26:41.652Z,101212.88
2023-05-04T21:29:12.223Z,101212.00
2023-05-04T21:31:40.110Z,101211.97
2023-05-04T21:34:08.250Z,101211.09
2023-05-04T21:36:35.934Z,101209.28
2023-05-04T21:39:03.587Z,101221.69
2023-05-04T21:41:32.595Z,101219.91
2023-05-04T21:44:00.346Z,101214.53
2023-05-04T21:46:28.363Z,101215.44
2023-05-04T21:48:56.017Z,101211.00
2023-05-04T21:51:23.686Z,101218.94
2023-05-04T21:53:51.302Z,101210.94
2023-05-04T21:56:18.899Z,101205.63
2023-05-04T21:58:47.885Z,101196.72
2023-05-04T22:01:16.978Z,101202.94
2023-05-04T22:03:45.420Z,101208.22
2023-05-04T22:06:13.772Z,101197.59
2023-05-04T22:08:41.392Z,101198.44
2023-05-04T22:11:09.237Z,101206.41
2023-05-04T22:13:37.007Z,101205.47
2023-05-04T22:16:08.865Z,101207.22
2023-05-04T22:18:36.542Z,101207.22
2023-05-04T22:21:04.280Z,101204.53
2023-05-04T22:23:31.931Z,101219.56
2023-05-04T22:25:59.680Z,101218.66
2023-05-04T22:28:27.393Z,101208.81
2023-05-04T22:30:55.101Z,101221.19
2023-05-04T22:33:24.086Z,101218.53
2023-05-04T22:35:51.688Z,101214.97
2023-05-04T22:38:19.357Z,101210.50
2023-05-04T22:40:48.293Z,101214.00
2023-05-04T22:43:15.955Z,101209.53
2023-05-04T22:45:43.618Z,101202.44
2023-05-04T22:48:11.295Z,101205.94
2023-05-04T22:50:40.232Z,101198.00
2023-05-04T22:53:07.983Z,101199.75
2023-05-04T22:55:35.651Z,101194.41
2023-05-04T22:58:03.343Z,101192.59
2023-05-04T23:00:31.745Z,101186.38
2023-05-04T23:02:59.962Z,101189.91
2023-05-04T23:05:27.836Z,101189.88
2023-05-04T23:07:57.032Z,101185.41
2023-05-04T23:10:24.676Z,101181.84
2023-05-04T23:12:52.327Z,101174.78
2023-05-04T23:15:20.138Z,101181.81
2023-05-04T23:17:47.757Z,101171.19
2023-05-04T23:20:16.742Z,101180.00
2023-05-04T23:22:44.407Z,101179.09
2023-05-04T23:25:13.361Z,101178.19
2023-05-04T23:27:40.976Z,101186.13
2023-05-04T23:30:10.279Z,101178.13
2023-05-04T23:32:38.273Z,101180.75
2023-05-04T23:35:07.510Z,101188.66
2023-05-04T23:37:35.157Z,101185.13
2023-05-04T23:40:02.981Z,101179.78
2023-05-04T23:42:31.918Z,101184.19
2023-05-04T23:44:59.494Z,101172.66
2023-05-04T23:47:27.201Z,101181.47
2023-05-04T23:49:54.835Z,101181.44
2023-05-04T23:52:22.531Z,101180.53
2023-05-04T23:54:53.682Z,101179.66
2023-05-04T23:57:21.657Z,101170.78
2023-05-04T23:59:50.787Z,101170.75
